sensor_id;sensor_type;location;lat;lon;timestamp;pressure;altitude;pressure_sealevel;temperature;humidity
66273;BME280;58450;52.150;4.466;2023-07-13T00:02:26;101320.56;;;17.05;100.00
66273;BME280;58450;52.150;4.466;2023-07-13T00:04:55;101326.44;;;17.02;100.00
66273;BME280;58450;52.150;4.466;2023-07-13T00:07:23;101322.22;;;17.06;100.00
66273;BME280;58450;52.150;4.466;2023-07-13T00:09:51;101323.69;;;17.08;100.00
66273;BME280;58450;52.150;4.466;2023-07-13T00:12:24;101323.06;;;17.06;100.00
66273;BME280;58450;52.150;4.466;2023-07-13T00:14:55;101333.09;;;17.06;100.00
66273;BME280;58450;52.150;4.466;2023-07-13T00:17:24;101336.69;;;16.99;100.00
66273;BME280;58450;52.150;4.466;2023-07-13T00:19:53;101338.78;;;17.04;100.00
66273;BME280;58450;52.150;4.466;2023-07-13T00:22:23;101332.94;;;17.01;100.00
66273;BME280;58450;52.150;4.466;2023-07-13T00:24:53;101337.53;;;17.00;100.00
66273;BME280;58450;52.150;4.466;2023-07-13T00:27:22;101340.47;;;16.98;100.00
66273;BME280;58450;52.150;4.466;2023-07-13T00:29:52;101335.44;;;17.02;100.00
66273;BME280;58450;52.150;4.466;2023-07-13T00:32:20;101353.63;;;17.02;100.00
66273;BME280;58450;52.150;4.466;2023-07-13T00:34:48;101338.16;;;16.95;100.00
66273;BME280;58450;52.150;4.466;2023-07-13T00:37:16;101339.66;;;16.98;100.00
66273;BME280;58450;52.150;4.466;2023-07-13T00:39:45;101345.50;;;16.95;100.00
66273;BME280;58450;52.150;4.466;2023-07-13T00:42:13;101353.44;;;16.96;100.00
66273;BME280;58450;52.150;4.466;2023-07-13T00:44:41;101348.22;;;16.95;100.00
66273;BME280;58450;52.150;4.466;2023-07-13T00:47:09;101340.88;;;16.95;100.00
66273;BME280;58450;52.150;4.466;2023-07-13T00:49:36;101348.63;;;16.98;100.00
66273;BME280;58450;52.150;4.466;2023-07-13T00:52:06;101339.66;;;16.98;100.00
66273;BME280;58450;52.150;4.466;2023-07-13T00:54:38;101337.53;;;16.93;100.00
66273;BME280;58450;52.150;4.466;2023-07-13T00:57:15;101339.00;;;16.89;100.00
66273;BME280;58450;52.150;4.466;2023-07-13T00:59:52;101342.41;;;16.84;100.00
66273;BME280;58450;52.150;4.466;2023-07-13T01:02:23;101340.94;;;16.82;100.00
66273;BME280;58450;52.150;4.466;2023-07-13T01:04:52;101339.25;;;16.81;100.00
66273;BME280;58450;52.150;4.466;2023-07-13T01:07:20;101341.97;;;16.81;100.00
66273;BME280;58450;52.150;4.466;2023-07-13T01:09:48;101348.88;;;16.83;100.00
66273;BME280;58450;52.150;4.466;2023-07-13T01:12:17;101344.94;;;16.79;100.00
66273;BME280;58450;52.150;4.466;2023-07-13T01:14:44;101345.75;;;16.80;100.00
66273;BME280;58450;52.150;4.466;2023-07-13T01:17:20;101348.69;;;16.78;100.00
66273;BME280;58450;52.150;4.466;2023-07-13T01:19:48;101343.31;;;16.72;100.00
66273;BME280;58450;52.150;4.466;2023-07-13T01:22:19;101349.19;;;16.68;100.00
66273;BME280;58450;52.150;4.466;2023-07-13T01:24:51;101345.84;;;16.66;100.00
66273;BME280;58450;52.150;4.466;2023-07-13T01:27:22;101333.50;;;16.64;100.00
66273;BME280;58450;52.150;4.466;2023-07-13T01:29:53;101355.06;;;16.59;100.00
66273;BME280;58450;52.150;4.466;2023-07-13T01:32:28;101358.00;;;16.57;100.00
66273;BME280;58450;52.150;4.466;2023-07-13T01:34:57;101355.09;;;16.52;100.00
66273;BME280;58450;52.150;4.466;2023-07-13T01:37:26;101366.56;;;16.47;100.00
66273;BME280;58450;52.150;4.466;2023-07-13T01:40:02;101363.25;;;16.45;100.00
66273;BME280;58450;52.150;4.466;2023-07-13T01:42:30;101372.03;;;16.40;100.00
66273;BME280;58450;52.150;4.466;2023-07-13T01:44:58;101360.56;;;16.38;100.00
66273;BME280;58450;52.150;4.466;2023-07-13T01:47:26;101359.09;;;16.36;100.00
66273;BME280;58450;52.150;4.466;2023-07-13T01:49:55;101364.13;;;16.32;100.00
66273;BME280;58450;52.150;4.466;2023-07-13T01:52:23;101363.72;;;16.29;100.00
66273;BME280;58450;52.150;4.466;2023-07-13T01:54:52;101368.75;;;16.32;100.00
66273;BME280;58450;52.150;4.466;2023-07-13T01:57:20;101371.03;;;16.28;100.00
66273;BME280;58450;52.150;4.466;2023-07-13T01:59:47;101370.63;;;16.24;100.00
66273;BME280;58450;52.150;4.466;2023-07-13T02:02:15;101368.72;;;16.25;100.00
66273;BME280;58450;52.150;4.466;2023-07-13T02:04:43;101365.00;;;16.19;100.00
66273;BME280;58450;52.150;4.466;2023-07-13T02:07:11;101376.28;;;16.16;100.00
66273;BME280;58450;52.150;4.466;2023-07-13T02:09:39;101379.00;;;16.16;100.00
66273;BME280;58450;52.150;4.466;2023-07-13T02:12:08;101368.34;;;16.15;100.00
66273;BME280;58450;52.150;4.466;2023-07-13T02:14:36;101376.72;;;16.13;100.00
66273;BME280;58450;52.150;4.466;2023-07-13T02:17:04;101378.78;;;16.11;100.00
66273;BME280;58450;52.150;4.466;2023-07-13T02:19:32;101383.59;;;16.09;100.00
66273;BME280;58450;52.150;4.466;2023-07-13T02:22:00;101388.41;;;16.07;100.00
66273;BME280;58450;52.150;4.466;2023-07-13T02:24:28;101386.75;;;16.06;100.00
66273;BME280;58450;52.150;4.466;2023-07-13T02:26:55;101379.63;;;16.05;100.00
66273;BME280;58450;52.150;4.466;2023-07-13T02:29:25;101388.81;;;16.04;100.00
66273;BME280;58450;52.150;4.466;2023-07-13T02:31:52;101380.69;;;16.04;100.00
66273;BME280;58450;52.150;4.466;2023-07-13T02:34:20;101368.16;;;16.03;100.00
66273;BME280;58450;52.150;4.466;2023-07-13T02:36:48;101376.28;;;16.03;100.00
66273;BME280;58450;52.150;4.466;2023-07-13T02:39:16;101377.97;;;16.04;100.00
66273;BME280;58450;52.150;4.466;2023-07-13T02:41:44;101376.50;;;16.01;100.00
66273;BME280;58450;52.150;4.466;2023-07-13T02:44:12;101374.81;;;16.00;100.00
66273;BME280;58450;52.150;4.466;2023-07-13T02:46:41;101370.88;;;16.03;100.00
66273;BME280;58450;52.150;4.466;2023-07-13T02:49:09;101386.94;;;16.04;100.00
66273;BME280;58450;52.150;4.466;2023-07-13T02:51:37;101379.63;;;16.05;100.00
66273;BME280;58450;52.150;4.466;2023-07-13T02:54:05;101380.25;;;16.07;100.00
66273;BME280;58450;52.150;4.466;2023-07-13T02:56:34;101387.13;;;16.09;100.00
66273;BME280;58450;52.150;4.466;2023-07-13T02:59:05;101380.47;;;16.12;100.00
66273;BME280;58450;52.150;4.466;2023-07-13T03:01:32;101385.91;;;16.12;100.00
66273;BME280;58450;52.150;4.466;2023-07-13T03:04:03;101380.88;;;16.16;100.00
66273;BME280;58450;52.150;4.466;2023-07-13T03:06:31;101385.25;;;16.17;100.00
66273;BME280;58450;52.150;4.466;2023-07-13T03:08:59;101390.47;;;16.18;100.00
66273;BME280;58450;52.150;4.466;2023-07-13T03:11:27;101391.53;;;16.17;100.00
66273;BME280;58450;52.150;4.466;2023-07-13T03:13:56;101387.97;;;16.17;100.00
66273;BME280;58450;52.150;4.466;2023-07-13T03:16:24;101399.88;;;16.16;100.00
66273;BME280;58450;52.150;4.466;2023-07-13T03:18:52;101400.50;;;16.18;100.00
66273;BME280;58450;52.150;4.466;2023-07-13T03:21:21;101388.81;;;16.17;100.00
66273;BME280;58450;52.150;4.466;2023-07-13T03:23:49;101396.97;;;16.17;100.00
66273;BME280;58450;52.150;4.466;2023-07-13T03:26:19;101389.00;;;16.16;100.00
66273;BME280;58450;52.150;4.466;2023-07-13T03:28:48;101388.19;;;16.15;100.00
66273;BME280;58450;52.150;4.466;2023-07-13T03:31:17;101391.94;;;16.14;100.00
66273;BME280;58450;52.150;4.466;2023-07-13T03:33:47;101395.72;;;16.13;100.00
66273;BME280;58450;52.150;4.466;2023-07-13T03:36:17;101396.75;;;16.12;100.00
66273;BME280;58450;52.150;4.466;2023-07-13T03:38:49;101391.09;;;16.14;100.00
66273;BME280;58450;52.150;4.466;2023-07-13T03:41:19;101396.34;;;16.15;100.00
66273;BME280;58450;52.150;4.466;2023-07-13T03:43:47;101404.47;;;16.15;100.00
66273;BME280;58450;52.150;4.466;2023-07-13T03:46:16;101388.19;;;16.15;100.00
66273;BME280;58450;52.150;4.466;2023-07-13T03:48:46;101407.19;;;16.15;100.00
66273;BME280;58450;52.150;4.466;2023-07-13T03:51:16;101395.91;;;16.18;100.00
66273;BME280;58450;52.150;4.466;2023-07-13T03:53:46;101399.44;;;16.19;100.00
66273;BME280;58450;52.150;4.466;2023-07-13T03:56:16;101403.00;;;16.19;100.00
66273;BME280;58450;52.150;4.466;2023-07-13T03:58:46;101408.22;;;16.21;100.00
66273;BME280;58450;52.150;4.466;2023-07-13T04:01:17;101406.75;;;16.25;100.00
66273;BME280;58450;52.150;4.466;2023-07-13T04:03:46;101401.13;;;16.27;100.00
66273;BME280;58450;52.150;4.466;2023-07-13T04:06:16;101405.50;;;16.28;100.00
66273;BME280;58450;52.150;4.466;2023-07-13T04:08:50;101414.06;;;16.31;100.00
66273;BME280;58450;52.150;4.466;2023-07-13T04:11:20;101416.56;;;16.33;100.00
66273;BME280;58450;52.150;4.466;2023-07-13T04:13:50;101413.63;;;16.34;100.00
66273;BME280;58450;52.150;4.466;2023-07-13T04:16:19;101414.03;;;16.38;100.00
66273;BME280;58450;52.150;4.466;2023-07-13T04:18:47;101420.31;;;16.38;100.00
66273;BME280;58450;52.150;4.466;2023-07-13T04:21:16;101420.94;;;16.40;100.00
66273;BME280;58450;52.150;4.466;2023-07-13T04:23:44;101421.13;;;16.46;100.00
66273;BME280;58450;52.150;4.466;2023-07-13T04:26:13;101415.72;;;16.46;100.00
66273;BME280;58450;52.150;4.466;2023-07-13T04:28:41;101418.81;;;16.49;100.00
66273;BME280;58450;52.150;4.466;2023-07-13T04:31:09;101420.91;;;16.54;100.00
66273;BME280;58450;52.150;4.466;2023-07-13T04:33:36;101431.97;;;16.59;100.00
66273;BME280;58450;52.150;4.466;2023-07-13T04:36:05;101431.56;;;16.62;100.00
66273;BME280;58450;52.150;4.466;2023-07-13T04:38:35;101422.75;;;16.67;100.00
66273;BME280;58450;52.150;4.466;2023-07-13T04:41:05;101429.22;;;16.73;100.00
66273;BME280;58450;52.150;4.466;2023-07-13T04:43:36;101429.00;;;16.74;100.00
66273;BME280;58450;52.150;4.466;2023-07-13T04:46:05;101436.72;;;16.77;100.00
66273;BME280;58450;52.150;4.466;2023-07-13T04:48:34;101426.47;;;16.79;100.00
66273;BME280;58450;52.150;4.466;2023-07-13T04:51:02;101431.47;;;16.82;100.00
66273;BME280;58450;52.150;4.466;2023-07-13T04:53:31;101438.78;;;16.82;100.00
66273;BME280;58450;52.150;4.466;2023-07-13T04:56:00;101442.56;;;16.88;100.00
66273;BME280;58450;52.150;4.466;2023-07-13T04:58:29;101443.38;;;16.88;100.00
66273;BME280;58450;52.150;4.466;2023-07-13T05:01:01;101449.84;;;17.01;100.00
66273;BME280;58450;52.150;4.466;2023-07-13T05:03:30;101456.50;;;17.11;100.00
66273;BME280;58450;52.150;4.466;2023-07-13T05:06:00;101446.22;;;17.20;100.00
66273;BME280;58450;52.150;4.466;2023-07-13T05:08:30;101447.63;;;17.23;100.00
66273;BME280;58450;52.150;4.466;2023-07-13T05:10:59;101453.28;;;17.28;100.00
66273;BME280;58450;52.150;4.466;2023-07-13T05:13:27;101453.06;;;17.30;100.00
66273;BME280;58450;52.150;4.466;2023-07-13T05:15:56;101452.19;;;17.36;100.00
66273;BME280;58450;52.150;4.466;2023-07-13T05:18:27;101471.19;;;17.42;100.00
66273;BME280;58450;52.150;4.466;2023-07-13T05:21:00;101457.56;;;17.49;100.00
66273;BME280;58450;52.150;4.466;2023-07-13T05:23:29;101454.19;;;17.54;100.00
66273;BME280;58450;52.150;4.466;2023-07-13T05:25:57;101474.94;;;17.48;100.00
66273;BME280;58450;52.150;4.466;2023-07-13T05:28:26;101465.31;;;17.46;100.00
66273;BME280;58450;52.150;4.466;2023-07-13T05:30:54;101465.56;;;17.37;100.00
66273;BME280;58450;52.150;4.466;2023-07-13T05:33:22;101467.25;;;17.38;100.00
66273;BME280;58450;52.150;4.466;2023-07-13T05:35:52;101473.72;;;17.44;100.00
66273;BME280;58450;52.150;4.466;2023-07-13T05:38:20;101467.41;;;17.50;100.00
66273;BME280;58450;52.150;4.466;2023-07-13T05:40:48;101480.78;;;17.52;100.00
66273;BME280;58450;52.150;4.466;2023-07-13T05:43:17;101474.03;;;17.61;100.00
66273;BME280;58450;52.150;4.466;2023-07-13T05:45:44;101476.75;;;17.61;100.00
66273;BME280;58450;52.150;4.466;2023-07-13T05:48:12;101481.38;;;17.61;100.00
66273;BME280;58450;52.150;4.466;2023-07-13T05:50:41;101476.44;;;17.76;100.00
66273;BME280;58450;52.150;4.466;2023-07-13T05:53:10;101484.41;;;17.71;100.00
66273;BME280;58450;52.150;4.466;2023-07-13T05:55:41;101488.34;;;17.82;100.00
66273;BME280;58450;52.150;4.466;2023-07-13T05:58:11;101480.91;;;18.02;100.00
66273;BME280;58450;52.150;4.466;2023-07-13T06:00:39;101488.63;;;17.99;100.00
66273;BME280;58450;52.150;4.466;2023-07-13T06:03:07;101487.28;;;18.15;100.00
66273;BME280;58450;52.150;4.466;2023-07-13T06:05:35;101480.59;;;18.11;100.00
66273;BME280;58450;52.150;4.466;2023-07-13T06:08:06;101503.69;;;18.08;100.00
66273;BME280;58450;52.150;4.466;2023-07-13T06:10:36;101491.78;;;18.02;100.00
66273;BME280;58450;52.150;4.466;2023-07-13T06:13:04;101503.63;;;17.83;100.00
66273;BME280;58450;52.150;4.466;2023-07-13T06:15:32;101498.47;;;18.07;100.00
66273;BME280;58450;52.150;4.466;2023-07-13T06:18:00;101505.53;;;18.14;100.00
66273;BME280;58450;52.150;4.466;2023-07-13T06:20:28;101512.88;;;18.39;100.00
66273;BME280;58450;52.150;4.466;2023-07-13T06:22:57;101513.41;;;18.23;100.00
66273;BME280;58450;52.150;4.466;2023-07-13T06:25:26;101515.44;;;18.09;100.00
66273;BME280;58450;52.150;4.466;2023-07-13T06:27:55;101510.72;;;18.16;100.00
66273;BME280;58450;52.150;4.466;2023-07-13T06:30:23;101520.75;;;18.22;100.00
66273;BME280;58450;52.150;4.466;2023-07-13T06:32:51;101527.72;;;18.43;100.00
66273;BME280;58450;52.150;4.466;2023-07-13T06:35:19;101511.75;;;18.47;100.00
66273;BME280;58450;52.150;4.466;2023-07-13T06:37:47;101518.94;;;18.60;100.00
66273;BME280;58450;52.150;4.466;2023-07-13T06:40:15;101519.72;;;18.67;100.00
66273;BME280;58450;52.150;4.466;2023-07-13T06:42:43;101518.47;;;18.88;100.00
66273;BME280;58450;52.150;4.466;2023-07-13T06:45:12;101534.06;;;18.81;100.00
66273;BME280;58450;52.150;4.466;2023-07-13T06:47:40;101519.47;;;18.50;100.00
66273;BME280;58450;52.150;4.466;2023-07-13T06:50:08;101534.22;;;18.42;100.00
66273;BME280;58450;52.150;4.466;2023-07-13T06:52:37;101525.69;;;18.57;100.00
66273;BME280;58450;52.150;4.466;2023-07-13T06:55:05;101525.13;;;18.74;100.00
66273;BME280;58450;52.150;4.466;2023-07-13T06:57:33;101523.28;;;18.68;100.00
66273;BME280;58450;52.150;4.466;2023-07-13T07:00:01;101534.41;;;18.66;100.00
66273;BME280;58450;52.150;4.466;2023-07-13T07:02:30;101533.91;;;18.76;100.00
66273;BME280;58450;52.150;4.466;2023-07-13T07:04:58;101539.97;;;18.78;100.00
66273;BME280;58450;52.150;4.466;2023-07-13T07:07:27;101541.19;;;18.82;100.00
66273;BME280;58450;52.150;4.466;2023-07-13T07:09:54;101534.53;;;18.78;100.00
66273;BME280;58450;52.150;4.466;2023-07-13T07:12:22;101546.78;;;18.43;100.00
66273;BME280;58450;52.150;4.466;2023-07-13T07:14:50;101542.44;;;18.36;100.00
66273;BME280;58450;52.150;4.466;2023-07-13T07:17:17;101558.16;;;18.34;100.00
66273;BME280;58450;52.150;4.466;2023-07-13T07:19:47;101542.81;;;18.14;100.00
66273;BME280;58450;52.150;4.466;2023-07-13T07:22:14;101549.38;;;18.06;100.00
66273;BME280;58450;52.150;4.466;2023-07-13T07:24:42;101545.13;;;18.42;100.00
66273;BME280;58450;52.150;4.466;2023-07-13T07:27:10;101546.22;;;19.04;100.00
66273;BME280;58450;52.150;4.466;2023-07-13T07:29:38;101552.59;;;19.35;100.00
66273;BME280;58450;52.150;4.466;2023-07-13T07:32:06;101552.69;;;19.77;100.00
66273;BME280;58450;52.150;4.466;2023-07-13T07:34:34;101555.03;;;19.74;100.00
66273;BME280;58450;52.150;4.466;2023-07-13T07:37:04;101549.28;;;19.63;100.00
66273;BME280;58450;52.150;4.466;2023-07-13T07:39:32;101546.22;;;19.72;100.00
66273;BME280;58450;52.150;4.466;2023-07-13T07:42:00;101546.97;;;20.10;100.00
66273;BME280;58450;52.150;4.466;2023-07-13T07:44:28;101557.09;;;20.21;100.00
66273;BME280;58450;52.150;4.466;2023-07-13T07:46:55;101560.28;;;19.57;100.00
66273;BME280;58450;52.150;4.466;2023-07-13T07:49:23;101566.16;;;19.42;100.00
66273;BME280;58450;52.150;4.466;2023-07-13T07:51:51;101576.63;;;19.26;100.00
66273;BME280;58450;52.150;4.466;2023-07-13T07:54:20;101576.50;;;19.70;100.00
66273;BME280;58450;52.150;4.466;2023-07-13T07:56:48;101572.41;;;19.79;100.00
66273;BME280;58450;52.150;4.466;2023-07-13T07:59:16;101566.88;;;20.41;100.00
66273;BME280;58450;52.150;4.466;2023-07-13T08:01:44;101584.00;;;19.75;100.00
66273;BME280;58450;52.150;4.466;2023-07-13T08:04:14;101570.16;;;19.39;100.00
66273;BME280;58450;52.150;4.466;2023-07-13T08:06:41;101574.72;;;18.83;100.00
66273;BME280;58450;52.150;4.466;2023-07-13T08:09:09;101581.63;;;18.35;100.00
66273;BME280;58450;52.150;4.466;2023-07-13T08:11:38;101573.81;;;18.45;100.00
66273;BME280;58450;52.150;4.466;2023-07-13T08:14:06;101579.25;;;18.70;100.00
66273;BME280;58450;52.150;4.466;2023-07-13T08:16:35;101581.19;;;18.63;100.00
66273;BME280;58450;52.150;4.466;2023-07-13T08:19:03;101579.41;;;18.75;100.00
66273;BME280;58450;52.150;4.466;2023-07-13T08:21:32;101585.56;;;19.15;100.00
66273;BME280;58450;52.150;4.466;2023-07-13T08:23:59;101590.03;;;19.28;100.00
66273;BME280;58450;52.150;4.466;2023-07-13T08:26:27;101588.44;;;19.20;100.00
66273;BME280;58450;52.150;4.466;2023-07-13T08:28:56;101577.16;;;19.35;100.00
66273;BME280;58450;52.150;4.466;2023-07-13T08:31:24;101586.97;;;19.73;100.00
66273;BME280;58450;52.150;4.466;2023-07-13T08:33:52;101581.78;;;19.84;100.00
66273;BME280;58450;52.150;4.466;2023-07-13T08:36:20;101569.44;;;20.12;100.00
66273;BME280;58450;52.150;4.466;2023-07-13T08:38:47;101593.66;;;20.08;100.00
66273;BME280;58450;52.150;4.466;2023-07-13T08:41:16;101608.16;;;20.08;100.00
66273;BME280;58450;52.150;4.466;2023-07-13T08:43:48;101578.78;;;20.04;100.00
66273;BME280;58450;52.150;4.466;2023-07-13T08:46:24;101606.31;;;19.53;100.00
66273;BME280;58450;52.150;4.466;2023-07-13T08:48:58;101587.59;;;19.57;100.00
66273;BME280;58450;52.150;4.466;2023-07-13T08:51:37;101580.00;;;19.77;100.00
66273;BME280;58450;52.150;4.466;2023-07-13T08:54:17;101592.88;;;20.31;100.00
66273;BME280;58450;52.150;4.466;2023-07-13T08:56:50;101589.94;;;20.45;100.00
66273;BME280;58450;52.150;4.466;2023-07-13T08:59:22;101584.38;;;20.63;100.00
66273;BME280;58450;52.150;4.466;2023-07-13T09:02:13;101601.53;;;20.16;100.00
66273;BME280;58450;52.150;4.466;2023-07-13T09:04:50;101601.22;;;20.36;100.00
66273;BME280;58450;52.150;4.466;2023-07-13T09:07:32;101597.94;;;21.06;100.00
66273;BME280;58450;52.150;4.466;2023-07-13T09:10:14;101590.66;;;20.52;100.00
66273;BME280;58450;52.150;4.466;2023-07-13T09:12:51;101632.94;;;19.76;100.00
66273;BME280;58450;52.150;4.466;2023-07-13T09:15:32;101589.78;;;19.48;100.00
66273;BME280;58450;52.150;4.466;2023-07-13T09:18:09;101600.78;;;19.78;100.00
66273;BME280;58450;52.150;4.466;2023-07-13T09:20:46;101594.63;;;20.14;100.00
66273;BME280;58450;52.150;4.466;2023-07-13T09:23:21;101594.25;;;20.76;100.00
66273;BME280;58450;52.150;4.466;2023-07-13T09:25:53;101617.69;;;21.08;100.00
66273;BME280;58450;52.150;4.466;2023-07-13T09:28:29;101603.00;;;20.31;100.00
66273;BME280;58450;52.150;4.466;2023-07-13T09:31:06;101605.66;;;19.88;100.00
66273;BME280;58450;52.150;4.466;2023-07-13T09:33:40;101630.13;;;20.14;100.00
66273;BME280;58450;52.150;4.466;2023-07-13T09:36:18;101632.84;;;19.83;100.00
66273;BME280;58450;52.150;4.466;2023-07-13T09:38:58;101624.28;;;19.79;100.00
66273;BME280;58450;52.150;4.466;2023-07-13T09:41:37;101619.75;;;19.73;100.00
66273;BME280;58450;52.150;4.466;2023-07-13T09:44:15;101624.25;;;19.98;100.00
66273;BME280;58450;52.150;4.466;2023-07-13T09:46:51;101613.56;;;20.27;100.00
66273;BME280;58450;52.150;4.466;2023-07-13T09:49:25;101624.13;;;19.74;100.00
66273;BME280;58450;52.150;4.466;2023-07-13T09:51:57;101625.38;;;20.09;100.00
66273;BME280;58450;52.150;4.466;2023-07-13T09:54:27;101642.81;;;20.93;100.00
66273;BME280;58450;52.150;4.466;2023-07-13T09:56:55;101633.97;;;20.79;100.00
66273;BME280;58450;52.150;4.466;2023-07-13T09:59:27;101643.16;;;20.42;100.00
66273;BME280;58450;52.150;4.466;2023-07-13T10:01:57;101651.50;;;20.05;100.00
66273;BME280;58450;52.150;4.466;2023-07-13T10:04:33;101645.34;;;20.10;100.00
66273;BME280;58450;52.150;4.466;2023-07-13T10:07:05;101660.94;;;20.21;100.00
66273;BME280;58450;52.150;4.466;2023-07-13T10:09:35;101643.63;;;20.39;100.00
66273;BME280;58450;52.150;4.466;2023-07-13T10:12:04;101660.34;;;20.19;100.00
66273;BME280;58450;52.150;4.466;2023-07-13T10:14:42;101676.38;;;19.59;100.00
66273;BME280;58450;52.150;4.466;2023-07-13T10:17:13;101664.25;;;20.11;100.00
66273;BME280;58450;52.150;4.466;2023-07-13T10:19:42;101658.69;;;20.60;100.00
66273;BME280;58450;52.150;4.466;2023-07-13T10:22:15;101677.44;;;20.45;100.00
66273;BME280;58450;52.150;4.466;2023-07-13T10:24:51;101674.66;;;19.46;100.00
66273;BME280;58450;52.150;4.466;2023-07-13T10:27:21;101687.84;;;19.49;100.00
66273;BME280;58450;52.150;4.466;2023-07-13T10:30:02;101689.56;;;19.44;100.00
66273;BME280;58450;52.150;4.466;2023-07-13T10:32:37;101695.97;;;19.75;100.00
66273;BME280;58450;52.150;4.466;2023-07-13T10:35:09;101679.53;;;20.31;100.00
66273;BME280;58450;52.150;4.466;2023-07-13T10:37:44;101698.47;;;20.14;100.00
66273;BME280;58450;52.150;4.466;2023-07-13T10:40:20;101705.66;;;20.27;100.00
66273;BME280;58450;52.150;4.466;2023-07-13T10:42:55;101689.97;;;20.34;100.00
66273;BME280;58450;52.150;4.466;2023-07-13T10:45:27;101689.94;;;21.07;100.00
66273;BME280;58450;52.150;4.466;2023-07-13T10:48:00;101692.56;;;20.59;100.00
66273;BME280;58450;52.150;4.466;2023-07-13T10:50:31;101699.63;;;20.36;100.00
66273;BME280;58450;52.150;4.466;2023-07-13T10:53:02;101687.16;;;20.10;100.00
66273;BME280;58450;52.150;4.466;2023-07-13T10:55:54;101710.78;;;20.65;100.00
66273;BME280;58450;52.150;4.466;2023-07-13T10:58:29;101686.81;;;20.91;100.00
66273;BME280;58450;52.150;4.466;2023-07-13T11:01:07;101702.91;;;20.57;100.00
66273;BME280;58450;52.150;4.466;2023-07-13T11:03:46;101713.75;;;20.03;100.00
66273;BME280;58450;52.150;4.466;2023-07-13T11:06:31;101707.88;;;20.18;100.00
66273;BME280;58450;52.150;4.466;2023-07-13T11:09:19;101697.09;;;20.04;100.00
66273;BME280;58450;52.150;4.466;2023-07-13T11:11:59;101691.31;;;20.13;100.00
66273;BME280;58450;52.150;4.466;2023-07-13T11:14:31;101707.94;;;20.72;100.00
66273;BME280;58450;52.150;4.466;2023-07-13T11:17:36;101701.59;;;21.26;100.00
66273;BME280;58450;52.150;4.466;2023-07-13T11:20:31;101698.63;;;21.51;100.00
66273;BME280;58450;52.150;4.466;2023-07-13T11:23:30;101697.91;;;21.44;100.00
66273;BME280;58450;52.150;4.466;2023-07-13T11:25:59;101701.59;;;21.38;100.00
66273;BME280;58450;52.150;4.466;2023-07-13T11:28:31;101703.72;;;21.00;100.00
66273;BME280;58450;52.150;4.466;2023-07-13T11:31:13;101685.53;;;20.94;100.00
66273;BME280;58450;52.150;4.466;2023-07-13T11:33:57;101700.88;;;21.07;100.00
66273;BME280;58450;52.150;4.466;2023-07-13T11:36:32;101705.88;;;21.22;100.00
66273;BME280;58450;52.150;4.466;2023-07-13T11:39:16;101694.28;;;20.84;100.00
66273;BME280;58450;52.150;4.466;2023-07-13T11:41:50;101705.88;;;21.22;100.00
66273;BME280;58450;52.150;4.466;2023-07-13T11:44:23;101717.50;;;20.20;100.00
66273;BME280;58450;52.150;4.466;2023-07-13T11:46:54;101703.28;;;20.30;100.00
66273;BME280;58450;52.150;4.466;2023-07-13T11:49:31;101715.53;;;21.13;100.00
66273;BME280;58450;52.150;4.466;2023-07-13T11:51:59;101690.38;;;21.75;100.00
66273;BME280;58450;52.150;4.466;2023-07-13T11:54:31;101715.50;;;21.60;100.00
66273;BME280;58450;52.150;4.466;2023-07-13T11:57:03;101746.38;;;20.77;100.00
66273;BME280;58450;52.150;4.466;2023-07-13T11:59:43;101718.16;;;20.77;100.00
66273;BME280;58450;52.150;4.466;2023-07-13T12:02:17;101729.25;;;20.51;100.00
66273;BME280;58450;52.150;4.466;2023-07-13T12:04:55;101729.75;;;19.81;100.00
66273;BME280;58450;52.150;4.466;2023-07-13T12:07:24;101742.00;;;19.53;100.00
66273;BME280;58450;52.150;4.466;2023-07-13T12:10:01;101729.38;;;20.14;100.00
66273;BME280;58450;52.150;4.466;2023-07-13T12:12:30;101714.44;;;20.59;100.00
66273;BME280;58450;52.150;4.466;2023-07-13T12:14:58;101727.69;;;20.74;100.00
66273;BME280;58450;52.150;4.466;2023-07-13T12:17:26;101719.91;;;21.37;100.00
66273;BME280;58450;52.150;4.466;2023-07-13T12:19:56;101735.56;;;20.83;100.00
66273;BME280;58450;52.150;4.466;2023-07-13T12:22:25;101707.53;;;21.47;100.00
66273;BME280;58450;52.150;4.466;2023-07-13T12:24:53;101715.63;;;21.06;100.00
66273;BME280;58450;52.150;4.466;2023-07-13T12:27:24;101727.03;;;21.03;100.00
66273;BME280;58450;52.150;4.466;2023-07-13T12:29:59;101712.19;;;21.46;100.00
66273;BME280;58450;52.150;4.466;2023-07-13T12:32:28;101730.47;;;20.86;100.00
66273;BME280;58450;52.150;4.466;2023-07-13T12:35:06;101726.22;;;20.60;100.00
66273;BME280;58450;52.150;4.466;2023-07-13T12:37:42;101719.53;;;20.25;100.00
66273;BME280;58450;52.150;4.466;2023-07-13T12:40:13;101733.06;;;20.20;100.00
66273;BME280;58450;52.150;4.466;2023-07-13T12:42:46;101728.06;;;20.78;100.00
66273;BME280;58450;52.150;4.466;2023-07-13T12:45:19;101720.16;;;20.27;100.00
66273;BME280;58450;52.150;4.466;2023-07-13T12:47:53;101721.31;;;20.80;100.00
66273;BME280;58450;52.150;4.466;2023-07-13T12:50:30;101735.59;;;20.94;100.00
66273;BME280;58450;52.150;4.466;2023-07-13T12:53:05;101730.66;;;20.12;100.00
66273;BME280;58450;52.150;4.466;2023-07-13T12:55:41;101735.44;;;20.47;100.00
66273;BME280;58450;52.150;4.466;2023-07-13T12:58:20;101722.47;;;20.73;100.00
66273;BME280;58450;52.150;4.466;2023-07-13T13:00:54;101728.19;;;20.83;100.00